sensor_id;sensor_type;location;lat;lon;timestamp;pressure;altitude;pressure_sealevel;temperature;humidity
10618;BME280;5356;43.526;26.534;2022-09-14T00:00:29;98892.88;;;17.35;100.00
10618;BME280;5356;43.526;26.534;2022-09-14T00:02:55;98895.31;;;17.31;100.00
10618;BME280;5356;43.526;26.534;2022-09-14T00:05:21;98898.00;;;17.31;100.00
10618;BME280;5356;43.526;26.534;2022-09-14T00:07:47;98889.94;;;17.26;100.00
10618;BME280;5356;43.526;26.534;2022-09-14T00:10:12;98899.09;;;17.20;100.00
10618;BME280;5356;43.526;26.534;2022-09-14T00:12:38;98896.13;;;17.06;100.00
10618;BME280;5356;43.526;26.534;2022-09-14T00:15:03;98893.72;;;16.94;100.00
10618;BME280;5356;43.526;26.534;2022-09-14T00:17:30;98902.84;;;16.83;100.00
10618;BME280;5356;43.526;26.534;2022-09-14T00:19:59;98901.78;;;16.89;100.00
10618;BME280;5356;43.526;26.534;2022-09-14T00:22:26;98904.72;;;16.77;100.00
10618;BME280;5356;43.526;26.534;2022-09-14T00:24:52;98902.53;;;16.69;100.00
10618;BME280;5356;43.526;26.534;2022-09-14T00:27:17;98902.03;;;16.82;100.00
10618;BME280;5356;43.526;26.534;2022-09-14T00:29:43;98906.34;;;16.89;100.00
10618;BME280;5356;43.526;26.534;2022-09-14T00:32:09;98906.63;;;16.82;100.00
10618;BME280;5356;43.526;26.534;2022-09-14T00:34:34;98904.16;;;16.75;100.00
10618;BME280;5356;43.526;26.534;2022-09-14T00:37:00;98904.72;;;16.77;100.00
10618;BME280;5356;43.526;26.534;2022-09-14T00:39:26;98905.81;;;16.92;100.00
10618;BME280;5356;43.526;26.534;2022-09-14T00:41:53;98903.63;;;16.78;100.00
10618;BME280;5356;43.526;26.534;2022-09-14T00:46:51;98902.53;;;16.74;100.00
10618;BME280;5356;43.526;26.534;2022-09-14T00:51:57;98902.28;;;16.76;100.00
10618;BME280;5356;43.526;26.534;2022-09-14T00:54:23;98905.28;;;16.85;100.00
10618;BME280;5356;43.526;26.534;2022-09-14T00:56:50;98904.19;;;16.86;100.00
10618;BME280;5356;43.526;26.534;2022-09-14T00:59:21;98904.72;;;16.77;100.00
10618;BME280;5356;43.526;26.534;2022-09-14T01:01:47;98909.53;;;16.65;100.00
10618;BME280;5356;43.526;26.534;2022-09-14T01:04:13;98907.91;;;16.59;100.00
10618;BME280;5356;43.526;26.534;2022-09-14T01:18:24;98910.50;;;16.38;100.00
10618;BME280;5356;43.526;26.534;2022-09-14T01:21:07;98917.47;;;16.29;100.00
10618;BME280;5356;43.526;26.534;2022-09-14T01:32:41;98908.94;;;16.48;100.00
10618;BME280;5356;43.526;26.534;2022-09-14T01:37:44;98910.50;;;16.38;100.00
10618;BME280;5356;43.526;26.534;2022-09-14T01:42:58;98909.41;;;16.29;100.00
10618;BME280;5356;43.526;26.534;2022-09-14T01:45:27;98901.09;;;16.26;100.00
10618;BME280;5356;43.526;26.534;2022-09-14T01:48:01;98902.13;;;16.20;100.00
10618;BME280;5356;43.526;26.534;2022-09-14T01:50:41;98913.63;;;16.10;100.00
10618;BME280;5356;43.526;26.534;2022-09-14T01:53:19;98907.44;;;16.04;100.00
10618;BME280;5356;43.526;26.534;2022-09-14T01:55:55;98903.88;;;15.88;100.00
10618;BME280;5356;43.526;26.534;2022-09-14T01:58:54;98908.75;;;15.91;100.00
10618;BME280;5356;43.526;26.534;2022-09-14T02:01:33;98906.59;;;15.99;100.00
10618;BME280;5356;43.526;26.534;2022-09-14T02:04:19;98911.38;;;15.86;100.00
10618;BME280;5356;43.526;26.534;2022-09-14T02:06:50;98904.66;;;15.84;100.00
10618;BME280;5356;43.526;26.534;2022-09-14T02:09:49;98899.31;;;15.89;100.00
10618;BME280;5356;43.526;26.534;2022-09-14T02:12:28;98896.59;;;15.84;100.00
10618;BME280;5356;43.526;26.534;2022-09-14T02:15:03;98895.25;;;15.81;100.00
10618;BME280;5356;43.526;26.534;2022-09-14T02:21:13;98894.41;;;15.76;100.00
10618;BME280;5356;43.526;26.534;2022-09-14T02:24:08;98889.59;;;15.78;100.00
10618;BME280;5356;43.526;26.534;2022-09-14T02:26:43;98890.97;;;15.85;100.00
10618;BME280;5356;43.526;26.534;2022-09-14T02:29:12;98894.78;;;15.94;100.00
10618;BME280;5356;43.526;26.534;2022-09-14T02:32:07;98901.44;;;15.87;100.00
10618;BME280;5356;43.526;26.534;2022-09-14T02:40:52;98888.38;;;15.58;100.00
10618;BME280;5356;43.526;26.534;2022-09-14T02:46:28;98898.34;;;15.63;100.00
10618;BME280;5356;43.526;26.534;2022-09-14T02:52:01;98893.09;;;15.78;100.00
10618;BME280;5356;43.526;26.534;2022-09-14T02:54:48;98889.56;;;15.73;100.00
10618;BME280;5356;43.526;26.534;2022-09-14T02:57:23;98883.94;;;15.74;100.00
10618;BME280;5356;43.526;26.534;2022-09-14T03:03:27;98889.69;;;15.56;100.00
10618;BME280;5356;43.526;26.534;2022-09-14T03:06:16;98878.09;;;15.45;100.00
10618;BME280;5356;43.526;26.534;2022-09-14T03:09:00;98887.25;;;15.49;100.00
10618;BME280;5356;43.526;26.534;2022-09-14T03:12:06;98899.34;;;15.52;100.00
10618;BME280;5356;43.526;26.534;2022-09-14T03:15:14;98895.56;;;15.47;100.00
10618;BME280;5356;43.526;26.534;2022-09-14T03:18:15;98888.81;;;15.45;100.00
10618;BME280;5356;43.526;26.534;2022-09-14T03:21:09;98893.72;;;15.53;100.00
10618;BME280;5356;43.526;26.534;2022-09-14T03:23:57;98898.78;;;15.49;100.00
10618;BME280;5356;43.526;26.534;2022-09-14T03:30:30;98905.41;;;15.37;100.00
10618;BME280;5356;43.526;26.534;2022-09-14T04:11:12;98931.16;;;15.00;100.00
10618;BME280;5356;43.526;26.534;2022-09-14T04:42:01;98950.88;;;14.62;100.00
10618;BME280;5356;43.526;26.534;2022-09-14T04:45:01;98958.06;;;14.56;100.00
10618;BME280;5356;43.526;26.534;2022-09-14T04:47:43;98951.09;;;14.55;100.00
10618;BME280;5356;43.526;26.534;2022-09-14T04:50:34;98952.13;;;14.54;100.00
10618;BME280;5356;43.526;26.534;2022-09-14T04:56:04;98947.41;;;14.62;100.00
10618;BME280;5356;43.526;26.534;2022-09-14T04:58:48;98952.25;;;14.65;100.00
10618;BME280;5356;43.526;26.534;2022-09-14T05:01:25;98952.56;;;14.68;100.00
10618;BME280;5356;43.526;26.534;2022-09-14T05:03:57;98953.28;;;14.86;100.00
10618;BME280;5356;43.526;26.534;2022-09-14T05:06:26;98958.91;;;14.84;100.00
10618;BME280;5356;43.526;26.534;2022-09-14T05:08:53;98958.63;;;14.86;100.00
10618;BME280;5356;43.526;26.534;2022-09-14T05:11:22;98950.91;;;14.89;100.00
10618;BME280;5356;43.526;26.534;2022-09-14T05:14:08;98953.09;;;14.92;100.00
10618;BME280;5356;43.526;26.534;2022-09-14T05:16:49;98950.69;;;14.96;100.00
10618;BME280;5356;43.526;26.534;2022-09-14T05:19:19;98955.38;;;15.11;100.00
10618;BME280;5356;43.526;26.534;2022-09-14T05:21:45;98955.44;;;15.16;100.00
10618;BME280;5356;43.526;26.534;2022-09-14T05:24:16;98949.31;;;15.20;100.00
10618;BME280;5356;43.526;26.534;2022-09-14T05:30:33;98960.16;;;15.36;100.00
10618;BME280;5356;43.526;26.534;2022-09-14T05:33:38;98956.53;;;15.52;100.00
10618;BME280;5356;43.526;26.534;2022-09-14T05:36:35;98956.03;;;15.55;100.00
10618;BME280;5356;43.526;26.534;2022-09-14T05:39:35;98956.34;;;15.64;100.00
10618;BME280;5356;43.526;26.534;2022-09-14T05:42:04;98957.50;;;15.73;100.00
10618;BME280;5356;43.526;26.534;2022-09-14T05:44:42;98958.13;;;15.85;100.00
10618;BME280;5356;43.526;26.534;2022-09-14T05:47:10;98969.19;;;15.99;100.00
10618;BME280;5356;43.526;26.534;2022-09-14T05:49:36;98967.66;;;16.08;100.00
10618;BME280;5356;43.526;26.534;2022-09-14T05:52:01;98969.59;;;16.23;100.00
10618;BME280;5356;43.526;26.534;2022-09-14T05:54:27;98975.84;;;16.34;100.00
10618;BME280;5356;43.526;26.534;2022-09-14T05:56:56;98975.34;;;16.42;100.00
10618;BME280;5356;43.526;26.534;2022-09-14T05:59:27;98976.16;;;16.53;100.00
10618;BME280;5356;43.526;26.534;2022-09-14T06:01:56;98976.75;;;16.65;100.00
10618;BME280;5356;43.526;26.534;2022-09-14T06:04:30;98982.16;;;16.75;100.00
10618;BME280;5356;43.526;26.534;2022-09-14T06:06:56;98981.13;;;16.87;100.00
10618;BME280;5356;43.526;26.534;2022-09-14T06:09:21;98986.56;;;17.02;100.00
10618;BME280;5356;43.526;26.534;2022-09-14T06:11:47;98988.47;;;17.17;100.00
10618;BME280;5356;43.526;26.534;2022-09-14T06:14:16;98983.06;;;17.32;100.00
10618;BME280;5356;43.526;26.534;2022-09-14T06:16:44;98980.66;;;17.46;100.00
10618;BME280;5356;43.526;26.534;2022-09-14T06:19:10;98988.19;;;17.59;100.00
10618;BME280;5356;43.526;26.534;2022-09-14T06:21:36;98979.84;;;17.76;100.00
10618;BME280;5356;43.526;26.534;2022-09-14T06:24:02;98968.25;;;17.91;100.00
10618;BME280;5356;43.526;26.534;2022-09-14T06:26:28;98974.69;;;18.05;100.00
10618;BME280;5356;43.526;26.534;2022-09-14T06:28:54;98963.34;;;18.08;100.00
10618;BME280;5356;43.526;26.534;2022-09-14T06:31:20;98970.06;;;18.16;100.00
10618;BME280;5356;43.526;26.534;2022-09-14T06:33:48;98969.75;;;18.28;100.00
10618;BME280;5356;43.526;26.534;2022-09-14T06:36:16;98966.47;;;18.41;100.00
10618;BME280;5356;43.526;26.534;2022-09-14T06:38:46;98966.66;;;18.60;100.00
10618;BME280;5356;43.526;26.534;2022-09-14T06:41:15;98973.56;;;18.81;100.00
10618;BME280;5356;43.526;26.534;2022-09-14T06:43:45;98966.69;;;19.04;100.00
10618;BME280;5356;43.526;26.534;2022-09-14T06:48:42;98962.63;;;19.41;98.21
10618;BME280;5356;43.526;26.534;2022-09-14T06:51:17;98963.88;;;19.54;95.97
10618;BME280;5356;43.526;26.534;2022-09-14T06:53:44;98968.31;;;19.74;96.00
10618;BME280;5356;43.526;26.534;2022-09-14T06:56:10;98974.56;;;19.99;95.76
10618;BME280;5356;43.526;26.534;2022-09-14T06:58:36;98961.66;;;20.14;94.62
10618;BME280;5356;43.526;26.534;2022-09-14T07:01:07;98973.16;;;20.25;93.94
10618;BME280;5356;43.526;26.534;2022-09-14T07:03:35;98971.09;;;20.41;93.58
10618;BME280;5356;43.526;26.534;2022-09-14T07:06:15;98969.47;;;20.64;93.08
10618;BME280;5356;43.526;26.534;2022-09-14T07:08:42;98970.94;;;20.75;91.28
10618;BME280;5356;43.526;26.534;2022-09-14T07:11:09;98977.84;;;20.87;91.26
10618;BME280;5356;43.526;26.534;2022-09-14T07:13:35;98979.19;;;21.03;89.26
10618;BME280;5356;43.526;26.534;2022-09-14T07:16:01;98980.16;;;21.12;86.91
10618;BME280;5356;43.526;26.534;2022-09-14T07:18:27;98983.38;;;21.14;85.68
10618;BME280;5356;43.526;26.534;2022-09-14T07:21:01;98980.63;;;21.33;84.81
10618;BME280;5356;43.526;26.534;2022-09-14T07:23:27;98982.31;;;21.48;82.76
10618;BME280;5356;43.526;26.534;2022-09-14T07:26:07;98984.88;;;21.58;76.31
10618;BME280;5356;43.526;26.534;2022-09-14T07:28:34;98971.72;;;21.65;74.43
10618;BME280;5356;43.526;26.534;2022-09-14T07:31:00;98979.16;;;21.73;76.15
10618;BME280;5356;43.526;26.534;2022-09-14T07:33:26;98969.75;;;21.85;75.19
10618;BME280;5356;43.526;26.534;2022-09-14T07:35:52;98965.94;;;21.86;70.73
10618;BME280;5356;43.526;26.534;2022-09-14T07:38:18;98969.56;;;21.95;71.44
10618;BME280;5356;43.526;26.534;2022-09-14T07:40:44;98972.09;;;22.05;70.51
10618;BME280;5356;43.526;26.534;2022-09-14T07:43:10;98959.06;;;22.21;70.95
10618;BME280;5356;43.526;26.534;2022-09-14T07:45:37;98961.78;;;22.35;71.16
10618;BME280;5356;43.526;26.534;2022-09-14T07:48:03;98954.22;;;22.46;68.26
10618;BME280;5356;43.526;26.534;2022-09-14T07:50:29;98962.44;;;22.54;67.20
10618;BME280;5356;43.526;26.534;2022-09-14T07:52:54;98967.47;;;22.47;64.47
10618;BME280;5356;43.526;26.534;2022-09-14T07:55:20;98962.75;;;22.53;64.45
10618;BME280;5356;43.526;26.534;2022-09-14T07:57:45;98961.75;;;22.62;65.84
10618;BME280;5356;43.526;26.534;2022-09-14T08:00:11;98965.03;;;22.73;64.83
10618;BME280;5356;43.526;26.534;2022-09-14T08:02:37;98961.38;;;22.78;62.49
10618;BME280;5356;43.526;26.534;2022-09-14T08:05:02;98956.28;;;22.76;61.24
10618;BME280;5356;43.526;26.534;2022-09-14T08:07:28;98967.09;;;22.90;62.06
10618;BME280;5356;43.526;26.534;2022-09-14T08:09:53;98957.22;;;22.94;60.22
10618;BME280;5356;43.526;26.534;2022-09-14T08:12:19;98961.84;;;23.07;59.58
10618;BME280;5356;43.526;26.534;2022-09-14T08:14:44;98969.25;;;23.16;57.25
10618;BME280;5356;43.526;26.534;2022-09-14T08:17:10;98958.88;;;23.18;57.33
10618;BME280;5356;43.526;26.534;2022-09-14T08:19:36;98957.22;;;23.30;58.24
10618;BME280;5356;43.526;26.534;2022-09-14T08:22:03;98961.28;;;23.42;57.04
10618;BME280;5356;43.526;26.534;2022-09-14T08:24:30;98951.72;;;23.44;56.38
10618;BME280;5356;43.526;26.534;2022-09-14T08:26:56;98958.97;;;23.58;56.19
10618;BME280;5356;43.526;26.534;2022-09-14T08:29:21;98959.34;;;23.65;55.26
10618;BME280;5356;43.526;26.534;2022-09-14T08:31:47;98954.16;;;23.77;56.46
10618;BME280;5356;43.526;26.534;2022-09-14T08:34:15;98943.75;;;23.79;55.17
10618;BME280;5356;43.526;26.534;2022-09-14T08:36:42;98957.38;;;23.79;53.35
10618;BME280;5356;43.526;26.534;2022-09-14T08:39:10;98946.97;;;23.81;53.19
10618;BME280;5356;43.526;26.534;2022-09-14T08:41:51;98947.53;;;24.01;54.31
10618;BME280;5356;43.526;26.534;2022-09-14T08:44:24;98940.69;;;24.12;54.62
10618;BME280;5356;43.526;26.534;2022-09-14T08:47:02;98941.81;;;24.11;54.34
10618;BME280;5356;43.526;26.534;2022-09-14T08:52:25;98935.75;;;24.31;54.08
10618;BME280;5356;43.526;26.534;2022-09-14T08:55:17;98940.44;;;24.39;52.73
10618;BME280;5356;43.526;26.534;2022-09-14T08:57:44;98932.16;;;24.45;50.01
10618;BME280;5356;43.526;26.534;2022-09-14T09:00:14;98932.66;;;24.55;51.00
10618;BME280;5356;43.526;26.534;2022-09-14T09:05:47;98927.84;;;24.87;51.24
10618;BME280;5356;43.526;26.534;2022-09-14T09:08:22;98929.13;;;24.98;50.51
10618;BME280;5356;43.526;26.534;2022-09-14T09:10:51;98927.22;;;24.99;48.95
10618;BME280;5356;43.526;26.534;2022-09-14T09:13:20;98920.00;;;25.03;49.10
10618;BME280;5356;43.526;26.534;2022-09-14T09:15:50;98922.72;;;25.12;49.84
10618;BME280;5356;43.526;26.534;2022-09-14T09:20:56;98922.88;;;25.06;48.33
10618;BME280;5356;43.526;26.534;2022-09-14T09:23:25;98922.91;;;25.15;48.10
10618;BME280;5356;43.526;26.534;2022-09-14T09:28:29;98914.81;;;25.45;48.32
10618;BME280;5356;43.526;26.534;2022-09-14T09:31:04;98906.63;;;25.53;46.82
10618;BME280;5356;43.526;26.534;2022-09-14T09:33:31;98914.16;;;25.57;45.78
10618;BME280;5356;43.526;26.534;2022-09-14T09:35:58;98909.59;;;25.69;45.46
10618;BME280;5356;43.526;26.534;2022-09-14T09:38:26;98911.84;;;25.85;45.61
10618;BME280;5356;43.526;26.534;2022-09-14T09:41:16;98910.53;;;25.91;44.82
10618;BME280;5356;43.526;26.534;2022-09-14T09:44:02;98913.53;;;25.98;45.54
10618;BME280;5356;43.526;26.534;2022-09-14T09:46:33;98917.53;;;26.01;44.30
10618;BME280;5356;43.526;26.534;2022-09-14T09:49:14;98909.47;;;26.04;44.02
10618;BME280;5356;43.526;26.534;2022-09-14T09:51:40;98911.47;;;25.95;43.31
10618;BME280;5356;43.526;26.534;2022-09-14T09:56:49;98912.94;;;26.22;44.30
10618;BME280;5356;43.526;26.534;2022-09-14T09:59:37;98899.09;;;26.27;43.88
10618;BME280;5356;43.526;26.534;2022-09-14T10:07:34;98907.22;;;26.36;43.15
10618;BME280;5356;43.526;26.534;2022-09-14T10:10:09;98900.22;;;26.26;41.69
10618;BME280;5356;43.526;26.534;2022-09-14T10:12:38;98905.16;;;26.33;41.88
10618;BME280;5356;43.526;26.534;2022-09-14T10:15:13;98903.28;;;26.46;42.17
10618;BME280;5356;43.526;26.534;2022-09-14T10:18:04;98906.94;;;26.58;41.96
10618;BME280;5356;43.526;26.534;2022-09-14T10:20:32;98901.25;;;26.63;42.08
10618;BME280;5356;43.526;26.534;2022-09-14T10:25:41;98905.59;;;26.64;41.53
10618;BME280;5356;43.526;26.534;2022-09-14T10:28:27;98903.31;;;26.67;41.59
10618;BME280;5356;43.526;26.534;2022-09-14T10:31:00;98902.53;;;26.66;40.96
10618;BME280;5356;43.526;26.534;2022-09-14T10:33:26;98906.53;;;26.69;41.36
10618;BME280;5356;43.526;26.534;2022-09-14T10:35:59;98904.13;;;26.88;41.00
10618;BME280;5356;43.526;26.534;2022-09-14T10:38:51;98900.91;;;27.07;41.35
10618;BME280;5356;43.526;26.534;2022-09-14T11:09:55;98874.84;;;27.67;39.75
10618;BME280;5356;43.526;26.534;2022-09-14T11:12:50;98868.16;;;27.89;38.76
10618;BME280;5356;43.526;26.534;2022-09-14T11:18:20;98850.91;;;28.01;38.40
10618;BME280;5356;43.526;26.534;2022-09-14T11:23:54;98847.88;;;28.31;38.75
10618;BME280;5356;43.526;26.534;2022-09-14T11:26:26;98854.59;;;28.58;38.64
10618;BME280;5356;43.526;26.534;2022-09-14T11:29:42;98850.69;;;28.59;38.49
10618;BME280;5356;43.526;26.534;2022-09-14T11:31:55;98846.25;;;28.54;37.62
10618;BME280;5356;43.526;26.534;2022-09-14T11:34:41;98843.88;;;28.40;37.75
10618;BME280;5356;43.526;26.534;2022-09-14T11:37:12;98844.00;;;28.44;38.15
10618;BME280;5356;43.526;26.534;2022-09-14T11:39:47;98849.00;;;28.54;37.75
10618;BME280;5356;43.526;26.534;2022-09-14T11:42:24;98839.72;;;28.59;37.32
10618;BME280;5356;43.526;26.534;2022-09-14T11:45:02;98839.47;;;28.64;37.20
10618;BME280;5356;43.526;26.534;2022-09-14T11:47:34;98838.13;;;28.58;36.28
10618;BME280;5356;43.526;26.534;2022-09-14T11:52:33;98829.44;;;28.68;36.85
10618;BME280;5356;43.526;26.534;2022-09-14T11:55:00;98824.75;;;28.69;36.45
10618;BME280;5356;43.526;26.534;2022-09-14T11:57:29;98834.25;;;28.59;36.45
10618;BME280;5356;43.526;26.534;2022-09-14T11:59:58;98815.25;;;28.66;36.70
10618;BME280;5356;43.526;26.534;2022-09-14T12:25:29;98785.59;;;28.84;34.98
10618;BME280;5356;43.526;26.534;2022-09-14T12:27:55;98787.72;;;28.91;35.24
10618;BME280;5356;43.526;26.534;2022-09-14T12:59:22;98776.19;;;29.45;34.95
10618;BME280;5356;43.526;26.534;2022-09-14T13:04:28;98772.88;;;29.71;34.02
10618;BME280;5356;43.526;26.534;2022-09-14T13:06:56;98777.63;;;29.90;34.04
10618;BME280;5356;43.526;26.534;2022-09-14T13:09:25;98759.41;;;29.82;33.59
10618;BME280;5356;43.526;26.534;2022-09-14T13:12:02;98765.94;;;29.93;33.32
10618;BME280;5356;43.526;26.534;2022-09-14T13:14:34;98774.25;;;29.96;32.86
10618;BME280;5356;43.526;26.534;2022-09-14T13:17:03;98777.00;;;29.96;32.95
10618;BME280;5356;43.526;26.534;2022-09-14T13:19:32;98780.25;;;30.02;32.69
10618;BME280;5356;43.526;26.534;2022-09-14T13:22:00;98770.84;;;30.03;32.48
10618;BME280;5356;43.526;26.534;2022-09-14T13:24:42;98772.75;;;30.18;32.64
10618;BME280;5356;43.526;26.534;2022-09-14T13:27:23;98777.81;;;30.16;32.91
10618;BME280;5356;43.526;26.534;2022-09-14T13:32:46;98773.63;;;30.23;32.53
10618;BME280;5356;43.526;26.534;2022-09-14T13:35:27;98768.16;;;30.23;32.92
10618;BME280;5356;43.526;26.534;2022-09-14T13:37:54;98770.44;;;30.20;33.18
10618;BME280;5356;43.526;26.534;2022-09-14T13:40:25;98781.59;;;30.28;32.92
10618;BME280;5356;43.526;26.534;2022-09-14T13:42:56;98774.94;;;30.29;32.69
10618;BME280;5356;43.526;26.534;2022-09-14T13:45:22;98775.94;;;30.20;32.59
10618;BME280;5356;43.526;26.534;2022-09-14T13:47:49;98775.06;;;30.16;32.51
10618;BME280;5356;43.526;26.534;2022-09-14T13:50:14;98785.78;;;29.86;32.19
10618;BME280;5356;43.526;26.534;2022-09-14T13:52:47;98774.63;;;30.14;32.69
10618;BME280;5356;43.526;26.534;2022-09-14T13:55:15;98773.06;;;30.33;32.51
10618;BME280;5356;43.526;26.534;2022-09-14T13:58:03;98770.84;;;30.38;32.68
10618;BME280;5356;43.526;26.534;2022-09-14T14:00:30;98772.78;;;30.38;32.33
10618;BME280;5356;43.526;26.534;2022-09-14T14:03:03;98769.63;;;30.20;31.93
10618;BME280;5356;43.526;26.534;2022-09-14T14:05:34;98771.16;;;30.17;32.48
10618;BME280;5356;43.526;26.534;2022-09-14T14:08:24;98772.75;;;30.18;32.36
10618;BME280;5356;43.526;26.534;2022-09-14T14:10:51;98778.56;;;30.33;32.83
10618;BME280;5356;43.526;26.534;2022-09-14T14:13:33;98777.63;;;30.25;32.80
10618;BME280;5356;43.526;26.534;2022-09-14T14:16:31;98773.34;;;30.28;32.72
10618;BME280;5356;43.526;26.534;2022-09-14T14:18:57;98769.75;;;30.24;32.94
10618;BME280;5356;43.526;26.534;2022-09-14T14:24:24;98773.19;;;30.40;33.15
10618;BME280;5356;43.526;26.534;2022-09-14T14:26:51;98772.19;;;30.29;33.19
10618;BME280;5356;43.526;26.534;2022-09-14T14:29:17;98779.94;;;30.23;33.58
10618;BME280;5356;43.526;26.534;2022-09-14T14:31:43;98793.47;;;29.96;33.52
10618;BME280;5356;43.526;26.534;2022-09-14T14:34:29;98793.03;;;29.94;33.59
10618;BME280;5356;43.526;26.534;2022-09-14T14:36:55;98787.81;;;29.89;33.77
10618;BME280;5356;43.526;26.534;2022-09-14T14:39:24;98787.25;;;29.64;33.99
10618;BME280;5356;43.526;26.534;2022-09-14T14:41:50;98777.13;;;29.52;33.56
10618;BME280;5356;43.526;26.534;2022-09-14T14:44:19;98762.28;;;29.38;33.66
10618;BME280;5356;43.526;26.534;2022-09-14T14:46:46;98772.38;;;29.34;33.81
10618;BME280;5356;43.526;26.534;2022-09-14T14:49:13;98778.31;;;29.20;33.70
10618;BME280;5356;43.526;26.534;2022-09-14T14:51:39;98775.56;;;29.20;33.44
10618;BME280;5356;43.526;26.534;2022-09-14T14:54:06;98772.91;;;29.07;33.52
10618;BME280;5356;43.526;26.534;2022-09-14T14:56:32;98783.84;;;28.92;33.62
10618;BME280;5356;43.526;26.534;2022-09-14T14:58:59;98781.50;;;28.78;33.80
10618;BME280;5356;43.526;26.534;2022-09-14T15:01:25;98784.66;;;28.64;34.23
10618;BME280;5356;43.526;26.534;2022-09-14T15:03:50;98778.84;;;28.65;34.16
10618;BME280;5356;43.526;26.534;2022-09-14T15:06:22;98777.44;;;28.72;34.05
10618;BME280;5356;43.526;26.534;2022-09-14T15:08:57;98779.56;;;28.78;34.54
10618;BME280;5356;43.526;26.534;2022-09-14T15:11:22;98775.47;;;28.72;34.39
10618;BME280;5356;43.526;26.534;2022-09-14T15:13:48;98771.56;;;28.73;34.59
10618;BME280;5356;43.526;26.534;2022-09-14T15:16:14;98760.63;;;28.73;34.62
10618;BME280;5356;43.526;26.534;2022-09-14T15:18:40;98750.47;;;28.74;34.55
10618;BME280;5356;43.526;26.534;2022-09-14T15:21:06;98750.97;;;28.63;34.87
10618;BME280;5356;43.526;26.534;2022-09-14T15:23:32;98741.41;;;28.57;35.02
10618;BME280;5356;43.526;26.534;2022-09-14T15:25:57;98747.75;;;28.46;34.81
10618;BME280;5356;43.526;26.534;2022-09-14T15:28:23;98745.72;;;28.30;34.68
10618;BME280;5356;43.526;26.534;2022-09-14T15:30:48;98738.81;;;28.20;34.92
10618;BME280;5356;43.526;26.534;2022-09-14T15:33:14;98738.72;;;28.17;35.10
10618;BME280;5356;43.526;26.534;2022-09-14T15:35:39;98737.59;;;28.06;35.32
10618;BME280;5356;43.526;26.534;2022-09-14T15:38:05;98732.81;;;28.03;35.29
10618;BME280;5356;43.526;26.534;2022-09-14T15:40:31;98740.81;;;27.95;35.43
10618;BME280;5356;43.526;26.534;2022-09-14T15:42:57;98737.41;;;27.86;35.67
10618;BME280;5356;43.526;26.534;2022-09-14T15:45:23;98735.25;;;27.80;35.80
10618;BME280;5356;43.526;26.534;2022-09-14T15:47:48;98731.47;;;27.72;36.06
10618;BME280;5356;43.526;26.534;2022-09-14T15:50:14;98731.72;;;27.67;36.41
10618;BME280;5356;43.526;26.534;2022-09-14T15:52:40;98731.34;;;27.68;36.60
10618;BME280;5356;43.526;26.534;2022-09-14T15:55:07;98724.44;;;27.59;36.97
10618;BME280;5356;43.526;26.534;2022-09-14T15:57:33;98741.28;;;27.48;37.48
10618;BME280;5356;43.526;26.534;2022-09-14T15:59:59;98738.25;;;27.38;37.81
10618;BME280;5356;43.526;26.534;2022-09-14T16:02:24;98736.19;;;27.35;37.77
10618;BME280;5356;43.526;26.534;2022-09-14T16:04:50;98730.38;;;27.36;38.07
10618;BME280;5356;43.526;26.534;2022-09-14T16:07:16;98738.13;;;27.22;38.73
10618;BME280;5356;43.526;26.534;2022-09-14T16:09:42;98742.53;;;27.14;39.04
10618;BME280;5356;43.526;26.534;2022-09-14T16:12:09;98734.22;;;27.10;39.67
10618;BME280;5356;43.526;26.534;2022-09-14T16:14:35;98729.63;;;27.02;39.88
10618;BME280;5356;43.526;26.534;2022-09-14T16:17:01;98728.59;;;26.95;40.24
10618;BME280;5356;43.526;26.534;2022-09-14T16:19:27;98728.47;;;26.79;40.54
10618;BME280;5356;43.526;26.534;2022-09-14T16:21:53;98740.03;;;26.63;41.09
10618;BME280;5356;43.526;26.534;2022-09-14T16:24:19;98731.03;;;26.51;41.44
10618;BME280;5356;43.526;26.534;2022-09-14T16:26:45;98719.22;;;26.38;42.11
10618;BME280;5356;43.526;26.534;2022-09-14T16:29:13;98725.78;;;26.25;42.87
10618;BME280;5356;43.526;26.534;2022-09-14T16:31:40;98725.69;;;26.12;43.50
10618;BME280;5356;43.526;26.534;2022-09-14T16:34:10;98729.16;;;26.01;44.36
10618;BME280;5356;43.526;26.534;2022-09-14T16:36:38;98727.84;;;25.86;44.79
10618;BME280;5356;43.526;26.534;2022-09-14T16:39:08;98716.16;;;25.76;45.58
10618;BME280;5356;43.526;26.534;2022-09-14T16:41:34;98716.56;;;25.66;45.87
10618;BME280;5356;43.526;26.534;2022-09-14T16:44:02;98715.81;;;25.57;46.50
10618;BME280;5356;43.526;26.534;2022-09-14T16:46:29;98712.19;;;25.44;46.67
10618;BME280;5356;43.526;26.534;2022-09-14T16:48:55;98710.56;;;25.22;47.35
10618;BME280;5356;43.526;26.534;2022-09-14T16:51:24;98721.16;;;25.15;48.21
10618;BME280;5356;43.526;26.534;2022-09-14T16:53:51;98704.81;;;25.15;48.05
10618;BME280;5356;43.526;26.534;2022-09-14T16:56:19;98710.75;;;25.08;48.70
10618;BME280;5356;43.526;26.534;2022-09-14T16:58:46;98705.78;;;25.02;48.60
10618;BME280;5356;43.526;26.534;2022-09-14T17:03:49;98708.59;;;24.84;49.32
10618;BME280;5356;43.526;26.534;2022-09-14T17:06:18;98707.03;;;24.75;49.58
10618;BME280;5356;43.526;26.534;2022-09-14T17:08:44;98699.69;;;24.67;50.17
10618;BME280;5356;43.526;26.534;2022-09-14T17:11:11;98710.44;;;24.54;50.27
10618;BME280;5356;43.526;26.534;2022-09-14T17:13:38;98716.38;;;24.30;51.03
10618;BME280;5356;43.526;26.534;2022-09-14T17:16:06;98715.41;;;24.17;51.82
10618;BME280;5356;43.526;26.534;2022-09-14T17:18:33;98717.03;;;24.10;52.21
10618;BME280;5356;43.526;26.534;2022-09-14T17:21:03;98725.34;;;24.05;52.69
10618;BME280;5356;43.526;26.534;2022-09-14T17:23:29;98725.50;;;24.00;52.88
10618;BME280;5356;43.526;26.534;2022-09-14T17:25:55;98730.63;;;23.92;53.38
10618;BME280;5356;43.526;26.534;2022-09-14T17:28:23;98722.94;;;23.86;54.28
10618;BME280;5356;43.526;26.534;2022-09-14T17:30:51;98722.28;;;23.80;55.04